Time;durP1;ratioP1;P1;durP2;ratioP2;P2;SDS_P1;SDS_P2;PMS_P1;PMS_P2;Temp;Humidity;BMP_temperature;BMP_pressure;BME280_temperature;BME280_humidity;BME280_pressure;Samples;Min_cycle;Max_cycle;Signal;HPM_P1;HPM_P2
2021/05/27 00:01:35;;;;;;;11.45;5.45;;;;;;;9.28;71.92;101183.94;5006984;28;20033;-84
2021/05/27 00:04:01;;;;;;;11.23;5.38;;;;;;;9.49;71.52;101236.41;5009472;28;21584;-86
2021/05/27 00:06:26;;;;;;;9.13;5.15;;;;;;;9.34;71.74;101228.06;5012358;28;20029;-83
2021/05/27 00:08:52;;;;;;;9.73;4.43;;;;;;;9.20;72.00;101222.28;5006355;28;20052;-85
2021/05/27 00:11:17;;;;;;;8.65;4.15;;;;;;;8.81;72.93;101181.53;5008483;28;20097;-86
2021/05/27 00:13:42;;;;;;;8.18;3.90;;;;;;;8.90;72.92;101214.66;5008514;28;20118;-82
2021/05/27 00:16:08;;;;;;;5.15;3.47;;;;;;;8.65;73.25;101179.53;5010430;28;20540;-83
2021/05/27 00:18:33;;;;;;;5.70;2.65;;;;;;;8.84;73.53;101213.44;5008661;28;20370;-84
2021/05/27 00:20:58;;;;;;;7.88;2.83;;;;;;;8.81;73.82;101216.41;5007224;28;20121;-84
2021/05/27 00:23:24;;;;;;;5.10;2.72;;;;;;;8.75;73.61;101200.94;5007113;28;20026;-85
2021/05/27 00:25:49;;;;;;;5.03;2.70;;;;;;;8.80;73.55;101207.50;5019566;28;20456;-84
2021/05/27 00:28:15;;;;;;;3.75;2.60;;;;;;;8.83;73.67;101203.69;4998461;28;20026;-84
2021/05/27 00:30:40;;;;;;;3.58;2.58;;;;;;;8.83;74.04;101202.84;5009892;28;20437;-85
2021/05/27 00:33:05;;;;;;;5.30;2.60;;;;;;;8.85;72.97;101200.84;5009922;28;20033;-85
2021/05/27 00:35:31;;;;;;;5.75;3.05;;;;;;;8.76;72.97;101206.16;5023403;28;20034;-86
2021/05/27 00:37:56;;;;;;;4.63;2.60;;;;;;;8.63;73.23;101197.66;5006453;28;20025;-85
2021/05/27 00:40:22;;;;;;;7.38;2.80;;;;;;;8.52;73.29;101195.16;5008496;28;20121;-85
2021/05/27 00:42:47;;;;;;;3.40;2.72;;;;;;;8.31;73.15;101166.81;5011089;28;20030;-85
2021/05/27 00:45:15;;;;;;;5.07;2.67;;;;;;;8.48;74.06;101205.34;5007361;28;20501;-85
2021/05/27 00:47:42;;;;;;;4.88;2.58;;;;;;;8.34;73.65;101185.25;4991860;28;20026;-84
2021/05/27 00:50:21;;;;;;;4.45;3.10;;;;;;;8.33;74.21;101198.78;5005177;28;20037;-86
2021/05/27 00:52:51;;;;;;;6.82;3.20;;;;;;;8.09;74.56;101181.44;5009209;28;20541;-85
2021/05/27 00:55:19;;;;;;;3.70;2.80;;;;;;;8.13;74.63;101192.72;5006781;28;20081;-86
2021/05/27 00:57:44;;;;;;;5.47;2.55;;;;;;;8.12;74.73;101186.50;5013184;28;20112;-86
2021/05/27 01:00:14;;;;;;;3.90;2.80;;;;;;;8.11;74.87;101186.66;4989466;28;20565;-85
2021/05/27 01:02:40;;;;;;;4.03;2.63;;;;;;;8.15;75.04;101194.25;5001700;28;20037;-85
2021/05/27 01:05:12;;;;;;;6.10;2.80;;;;;;;8.00;74.95;101184.19;5007627;28;20021;-85
2021/05/27 01:07:38;;;;;;;6.10;2.53;;;;;;;7.83;75.25;101183.97;5007411;28;20022;-84
2021/05/27 01:10:05;;;;;;;4.28;2.50;;;;;;;7.76;75.11;101196.25;5008118;28;20408;-84
2021/05/27 01:12:31;;;;;;;4.93;3.33;;;;;;;7.58;76.03;101185.47;5013677;28;20021;-84
2021/05/27 01:17:40;;;;;;;4.07;2.72;;;;;;;7.61;76.99;101198.56;5007792;28;20080;-84
2021/05/27 01:20:07;;;;;;;5.03;2.88;;;;;;;7.60;76.75;101179.97;5018427;28;20034;-84
2021/05/27 01:22:33;;;;;;;6.43;3.63;;;;;;;7.68;77.04;101178.25;5013541;28;20143;-84
2021/05/27 01:24:58;;;;;;;6.78;3.40;;;;;;;7.78;77.56;101174.69;5010744;28;20104;-86
2021/05/27 01:27:24;;;;;;;5.10;3.53;;;;;;;7.90;77.45;101187.72;5013770;28;20657;-86
2021/05/27 01:29:51;;;;;;;6.78;4.22;;;;;;;8.03;77.27;101179.34;5013774;28;20036;-85
2021/05/27 01:32:16;;;;;;;8.55;4.90;;;;;;;8.19;77.71;101185.91;5014979;28;20030;-85
2021/05/27 01:34:41;;;;;;;6.72;3.92;;;;;;;8.25;77.57;101179.94;5012375;28;20030;-84
2021/05/27 01:37:07;;;;;;;8.18;4.43;;;;;;;8.42;77.24;101189.06;5014137;28;20018;-85
2021/05/27 01:39:32;;;;;;;7.15;4.03;;;;;;;8.38;77.30;101181.25;5012124;28;20109;-85
2021/05/27 01:41:58;;;;;;;8.23;4.60;;;;;;;8.27;76.91;101154.69;5016101;28;20049;-85
2021/05/27 01:44:23;;;;;;;7.70;3.88;;;;;;;8.54;76.95;101193.19;5015410;28;20030;-85
2021/05/27 01:46:49;;;;;;;8.30;4.10;;;;;;;8.47;76.87;101192.97;4999110;28;20028;-85
2021/05/27 01:49:15;;;;;;;9.50;4.55;;;;;;;8.16;76.84;101138.84;5016168;28;20392;-85
2021/05/27 01:51:41;;;;;;;5.07;3.95;;;;;;;8.48;76.39;101188.44;5013392;28;20713;-85
2021/05/27 01:54:06;;;;;;;7.82;4.10;;;;;;;8.45;76.44;101180.72;5019468;28;20038;-86
2021/05/27 01:56:32;;;;;;;6.68;3.90;;;;;;;8.15;76.14;101134.47;5017483;28;20026;-84
2021/05/27 01:59:04;;;;;;;5.57;3.85;;;;;;;8.41;76.28;101173.94;5010845;28;20034;-85
2021/05/27 02:01:30;;;;;;;6.85;3.80;;;;;;;8.47;75.75;101178.72;5013843;28;20029;-84
2021/05/27 02:03:55;;;;;;;7.22;4.10;;;;;;;8.33;75.42;101140.69;5015897;28;20021;-85
2021/05/27 02:06:20;;;;;;;9.25;3.75;;;;;;;8.48;75.16;101159.78;5016411;28;20025;-86
2021/05/27 02:11:50;;;;;;;7.80;3.70;;;;;;;8.61;74.48;101172.81;4995574;28;20109;-84
2021/05/27 02:14:19;;;;;;;5.25;2.90;;;;;;;8.54;74.17;101182.47;5000315;28;20109;-85
2021/05/27 02:16:44;;;;;;;6.15;4.00;;;;;;;8.46;74.23;101167.13;4982554;28;20036;-84
2021/05/27 02:19:10;;;;;;;5.55;3.17;;;;;;;8.45;74.53;101178.84;5012079;28;20022;-84
2021/05/27 02:21:37;;;;;;;8.65;4.55;;;;;;;8.41;74.09;101174.78;5021475;28;20221;-86
2021/05/27 02:24:04;;;;;;;12.43;3.90;;;;;;;8.39;74.35;101176.78;5024421;28;20030;-85
2021/05/27 02:26:30;;;;;;;6.57;4.38;;;;;;;8.25;75.21;101172.75;5007772;28;20121;-86
2021/05/27 02:28:56;;;;;;;8.23;4.00;;;;;;;8.21;75.30;101182.09;5012752;28;20109;-85
2021/05/27 02:31:22;;;;;;;7.35;4.10;;;;;;;8.08;76.17;101168.22;4994872;28;20033;-85
2021/05/27 02:33:49;;;;;;;8.60;3.97;;;;;;;7.93;75.94;101141.91;5002824;28;20481;-86
2021/05/27 02:36:15;;;;;;;6.70;3.65;;;;;;;8.23;76.18;101184.59;5009906;28;20022;-86
2021/05/27 02:38:40;;;;;;;7.55;4.00;;;;;;;8.05;76.64;101165.84;5002237;28;20091;-85
2021/05/27 02:41:06;;;;;;;6.18;3.78;;;;;;;8.00;75.79;101146.69;5015303;28;20025;-85
2021/05/27 02:43:32;;;;;;;6.75;3.90;;;;;;;8.20;76.07;101180.38;5009523;28;20060;-85
2021/05/27 02:45:59;;;;;;;6.75;4.25;;;;;;;8.14;76.43;101176.47;5019032;28;20022;-86
2021/05/27 02:48:24;;;;;;;9.07;3.75;;;;;;;8.09;76.06;101161.84;5008963;28;20019;-85
2021/05/27 02:50:49;;;;;;;8.98;3.60;;;;;;;8.07;76.28;101161.16;5011406;28;20105;-85
2021/05/27 02:53:15;;;;;;;6.40;3.33;;;;;;;8.04;75.88;101169.47;5011422;28;20029;-85
2021/05/27 02:55:40;;;;;;;5.32;3.50;;;;;;;7.94;76.81;101153.50;5010027;28;20017;-84
2021/05/27 02:58:06;;;;;;;7.25;4.07;;;;;;;7.93;76.49;101152.63;5008273;28;20017;-85
2021/05/27 03:00:31;;;;;;;8.88;3.90;;;;;;;8.03;76.51;101162.44;4991900;28;20118;-85
2021/05/27 03:02:57;;;;;;;8.38;3.95;;;;;;;8.01;76.63;101161.75;4991400;28;20041;-85
2021/05/27 03:05:22;;;;;;;6.45;3.60;;;;;;;7.97;76.31;101149.66;5008054;28;20029;-85
2021/05/27 03:07:48;;;;;;;6.57;2.92;;;;;;;7.91;76.88;101137.69;5005383;28;20022;-84
2021/05/27 03:10:13;;;;;;;7.65;3.88;;;;;;;7.81;76.58;101127.06;5010196;28;20041;-86
2021/05/27 03:12:39;;;;;;;10.05;3.75;;;;;;;7.83;76.51;101138.47;5012880;28;20026;-85
2021/05/27 03:15:06;;;;;;;7.05;3.35;;;;;;;7.97;76.95;101166.56;5009837;28;20404;-83
2021/05/27 03:17:31;;;;;;;8.85;3.85;;;;;;;7.87;76.79;101147.03;5009023;28;20018;-84
2021/05/27 03:19:56;;;;;;;5.72;3.35;;;;;;;7.67;77.45;101125.72;4991293;28;20045;-84
2021/05/27 03:22:23;;;;;;;4.03;3.13;;;;;;;7.64;77.46;101122.47;5006108;28;20038;-85
2021/05/27 03:24:48;;;;;;;8.63;4.13;;;;;;;7.83;77.33;101151.00;5008135;28;20053;-84
2021/05/27 03:27:14;;;;;;;7.43;3.90;;;;;;;7.75;77.67;101138.34;5010690;28;20053;-84
2021/05/27 03:29:40;;;;;;;8.02;3.35;;;;;;;7.77;77.74;101160.47;5012050;28;20032;-85
2021/05/27 03:32:05;;;;;;;5.90;3.65;;;;;;;7.65;78.00;101141.06;5006868;28;20022;-84
2021/05/27 03:34:31;;;;;;;5.90;3.90;;;;;;;7.64;78.15;101143.88;5022761;28;20022;-84
2021/05/27 03:36:56;;;;;;;7.15;3.25;;;;;;;7.66;78.74;101144.59;5024917;28;20021;-84
2021/05/27 03:39:22;;;;;;;7.63;3.65;;;;;;;7.58;78.91;101131.09;5008671;28;20041;-85
2021/05/27 03:41:47;;;;;;;6.63;3.83;;;;;;;7.58;79.34;101136.47;4993810;28;20041;-85
2021/05/27 03:44:12;;;;;;;7.05;3.63;;;;;;;7.58;79.68;101142.66;5007784;28;20030;-85
2021/05/27 03:46:38;;;;;;;9.15;3.80;;;;;;;7.58;79.68;101144.50;5012305;28;20111;-84
2021/05/27 03:49:04;;;;;;;6.50;3.67;;;;;;;7.54;79.80;101129.69;5011230;28;20075;-83
2021/05/27 03:51:29;;;;;;;8.13;3.85;;;;;;;7.62;79.61;101140.50;5011026;28;20393;-83
2021/05/27 03:53:55;;;;;;;7.03;3.72;;;;;;;7.62;79.66;101129.81;5025229;28;20033;-84
2021/05/27 03:56:20;;;;;;;7.05;3.80;;;;;;;7.62;79.37;101125.31;5027125;28;20037;-85
2021/05/27 04:01:29;;;;;;;9.05;3.80;;;;;;;7.58;79.36;101115.06;5007873;28;20095;-85
2021/05/27 04:09:23;;;;;;;7.97;4.20;;;;;;;7.60;80.28;101110.41;5018994;28;20547;-85
2021/05/27 04:11:48;;;;;;;7.90;3.38;;;;;;;7.65;80.14;101121.50;4992035;28;20025;-85
2021/05/27 04:14:13;;;;;;;8.13;3.85;;;;;;;7.62;79.77;101103.03;4993721;28;20034;-86
2021/05/27 04:16:39;;;;;;;8.70;4.13;;;;;;;7.63;79.75;101116.28;5010012;28;20389;-85
2021/05/27 04:19:04;;;;;;;6.55;3.70;;;;;;;7.67;79.80;101114.16;5007549;28;20033;-85
2021/05/27 04:21:29;;;;;;;7.70;3.90;;;;;;;7.74;79.96;101115.25;4984127;28;20029;-85
2021/05/27 04:23:55;;;;;;;7.40;3.53;;;;;;;7.71;79.69;101113.72;5007385;28;20033;-84
2021/05/27 04:26:20;;;;;;;9.20;3.85;;;;;;;7.79;79.09;101123.69;4995220;28;20030;-85
2021/05/27 04:28:46;;;;;;;7.78;3.92;;;;;;;7.87;78.91;101128.28;5007673;28;20101;-84
2021/05/27 04:31:16;;;;;;;5.85;3.35;;;;;;;7.97;78.30;101130.94;5007406;28;20030;-83
2021/05/27 04:33:45;;;;;;;8.50;3.92;;;;;;;8.05;77.72;101133.69;5020418;28;20018;-84
2021/05/27 04:36:11;;;;;;;6.75;3.80;;;;;;;8.12;77.95;101132.06;5009673;28;20032;-85
2021/05/27 04:38:38;;;;;;;8.38;3.33;;;;;;;8.14;77.56;101127.41;5007316;28;20029;-84
2021/05/27 04:41:04;;;;;;;7.47;3.80;;;;;;;8.13;77.20;101128.44;4989335;28;20091;-84
2021/05/27 04:43:29;;;;;;;6.53;2.83;;;;;;;8.01;77.75;101124.25;5007737;28;20080;-85
2021/05/27 04:45:55;;;;;;;8.15;3.47;;;;;;;7.94;78.81;101116.00;4994127;28;20034;-84
2021/05/27 04:48:20;;;;;;;5.32;3.70;;;;;;;8.00;78.36;101125.25;4991584;28;20030;-85
2021/05/27 04:50:49;;;;;;;5.70;3.60;;;;;;;8.04;78.77;101116.75;5008201;28;20021;-84
2021/05/27 04:53:18;;;;;;;5.82;4.00;;;;;;;8.14;78.72;101120.22;5011078;28;20029;-85
2021/05/27 04:55:45;;;;;;;6.15;3.63;;;;;;;8.29;78.61;101125.91;5006461;28;20068;-85
2021/05/27 04:58:10;;;;;;;5.53;3.67;;;;;;;8.36;77.71;101121.63;5004158;28;20489;-85
2021/05/27 05:00:36;;;;;;;5.55;3.53;;;;;;;8.42;77.90;101117.53;5008221;28;20022;-85
2021/05/27 05:03:02;;;;;;;7.47;3.83;;;;;;;8.47;78.37;101120.59;5022646;28;20025;-84
2021/05/27 05:05:29;;;;;;;8.10;3.85;;;;;;;8.56;78.42;101122.34;4994733;28;20104;-85
2021/05/27 05:07:54;;;;;;;5.63;3.40;;;;;;;8.55;78.28;101107.28;4998485;28;20022;-84
2021/05/27 05:10:22;;;;;;;6.65;3.80;;;;;;;8.68;78.50;101116.75;4989622;28;20021;-84
2021/05/27 05:12:51;;;;;;;7.57;3.63;;;;;;;8.78;78.52;101122.84;5006814;28;20022;-85
2021/05/27 05:15:29;;;;;;;7.03;3.58;;;;;;;8.86;77.96;101130.13;4994755;28;20025;-84
2021/05/27 05:18:04;;;;;;;5.22;3.92;;;;;;;8.88;78.22;101114.72;5001402;28;20107;-84
2021/05/27 05:20:32;;;;;;;7.28;3.60;;;;;;;8.90;77.38;101108.22;5012307;28;20022;-85
2021/05/27 05:22:57;;;;;;;8.55;3.88;;;;;;;8.97;77.97;101121.81;5007329;28;20021;-84
2021/05/27 05:25:23;;;;;;;7.82;3.55;;;;;;;9.01;78.26;101120.53;5006297;28;20025;-85
2021/05/27 05:27:49;;;;;;;7.93;3.80;;;;;;;8.97;77.74;101103.06;4991838;28;20026;-85
2021/05/27 05:30:16;;;;;;;16.35;4.45;;;;;;;8.97;77.85;101092.31;4991144;28;20060;-85
2021/05/27 05:32:42;;;;;;;5.85;3.63;;;;;;;9.07;78.18;101105.66;5009858;28;20100;-83
2021/05/27 05:35:09;;;;;;;7.80;3.83;;;;;;;9.18;77.83;101111.59;5009046;28;20026;-85
2021/05/27 05:37:37;;;;;;;6.18;3.15;;;;;;;9.24;77.68;101113.66;4993333;28;20481;-84
2021/05/27 05:40:04;;;;;;;8.63;3.67;;;;;;;9.31;77.89;101113.84;5008062;28;20496;-84
2021/05/27 05:42:29;;;;;;;8.35;3.50;;;;;;;9.27;78.03;101100.91;5005963;28;20105;-84
2021/05/27 05:44:55;;;;;;;6.10;3.60;;;;;;;9.25;77.64;101106.44;5007194;28;20113;-84
2021/05/27 05:47:20;;;;;;;6.22;3.35;;;;;;;9.26;77.91;101105.41;5008524;28;20032;-85
2021/05/27 05:49:45;;;;;;;6.53;3.50;;;;;;;9.30;77.49;101103.28;5004133;28;20021;-85
2021/05/27 05:52:12;;;;;;;6.13;3.38;;;;;;;9.33;77.75;101108.31;4995842;28;20497;-84
2021/05/27 05:54:38;;;;;;;5.95;3.67;;;;;;;9.35;77.94;101107.16;5005628;28;20029;-85
2021/05/27 05:57:03;;;;;;;6.20;4.10;;;;;;;9.37;78.11;101104.34;5007847;28;20097;-84
2021/05/27 05:59:29;;;;;;;6.68;3.75;;;;;;;9.38;78.32;101114.91;5009634;28;20030;-85
2021/05/27 06:01:55;;;;;;;7.15;3.60;;;;;;;9.34;78.29;101112.69;5011171;28;20034;-85
2021/05/27 06:04:20;;;;;;;6.47;3.55;;;;;;;9.35;78.28;101117.06;5004358;28;20034;-84
2021/05/27 06:06:46;;;;;;;7.25;4.07;;;;;;;9.32;78.33;101118.22;5002781;28;20424;-85
2021/05/27 06:09:11;;;;;;;4.78;3.50;;;;;;;9.29;78.10;101117.69;4996068;28;20030;-85
2021/05/27 06:11:37;;;;;;;6.72;3.42;;;;;;;9.25;77.96;101115.31;5011175;28;20022;-85
2021/05/27 06:14:02;;;;;;;7.97;3.45;;;;;;;9.28;77.95;101129.44;5007775;28;20037;-84
2021/05/27 06:16:28;;;;;;;7.13;3.47;;;;;;;9.28;77.87;101126.75;5010232;28;20441;-84
2021/05/27 06:18:53;;;;;;;7.55;4.18;;;;;;;9.25;78.07;101119.84;5010100;28;20025;-84
2021/05/27 06:21:19;;;;;;;6.75;3.45;;;;;;;9.27;77.53;101114.34;4991742;28;20032;-85
2021/05/27 06:23:44;;;;;;;6.72;3.92;;;;;;;9.32;78.13;101112.84;5023001;28;20021;-85
2021/05/27 06:26:10;;;;;;;9.07;4.72;;;;;;;9.42;78.07;101123.47;5015197;28;20033;-84
2021/05/27 06:28:36;;;;;;;5.90;3.97;;;;;;;9.42;77.05;101104.66;4993970;28;20603;-85
2021/05/27 06:31:01;;;;;;;6.28;3.72;;;;;;;9.60;77.02;101123.38;5010887;28;20477;-84
2021/05/27 06:33:27;;;;;;;8.80;3.63;;;;;;;9.52;76.78;101102.72;5012206;28;20097;-84
2021/05/27 06:35:52;;;;;;;5.63;3.15;;;;;;;9.56;76.19;101087.16;5007648;28;20032;-84
2021/05/27 06:38:17;;;;;;;6.45;3.10;;;;;;;9.60;76.01;101086.63;5009753;28;20030;-85
2021/05/27 06:40:43;;;;;;;6.40;3.47;;;;;;;9.88;75.49;101122.16;5015735;28;20028;-85
2021/05/27 06:43:09;;;;;;;6.32;3.20;;;;;;;9.86;75.30;101099.16;5022812;28;20025;-85
2021/05/27 06:45:35;;;;;;;3.60;2.75;;;;;;;10.05;74.68;101111.47;5009820;28;20026;-85
2021/05/27 06:48:01;;;;;;;4.88;3.33;;;;;;;10.03;74.54;101091.97;5009222;28;20034;-85
2021/05/27 06:50:32;;;;;;;4.20;2.78;;;;;;;10.35;74.19;101118.16;5010964;28;20112;-84
2021/05/27 06:53:03;;;;;;;4.20;3.25;;;;;;;10.48;73.67;101125.72;4997812;28;20029;-85
2021/05/27 06:55:28;;;;;;;7.25;3.53;;;;;;;10.41;73.32;101119.31;4996071;28;20026;-84
2021/05/27 06:57:54;;;;;;;5.93;3.20;;;;;;;10.51;73.05;101120.84;5009319;28;20495;-85
2021/05/27 07:00:22;;;;;;;6.28;3.40;;;;;;;10.65;73.12;101131.94;4994651;28;20046;-84
2021/05/27 07:02:47;;;;;;;4.60;2.95;;;;;;;10.79;73.01;101126.72;5013817;28;20453;-85
2021/05/27 07:05:13;;;;;;;9.90;3.20;;;;;;;10.85;72.67;101127.94;5011997;28;20057;-84
2021/05/27 07:07:39;;;;;;;7.35;4.00;;;;;;;10.76;72.92;101113.63;5012453;28;20432;-85
2021/05/27 07:10:05;;;;;;;7.55;4.82;;;;;;;10.74;72.79;101112.97;5031603;28;20030;-85
2021/05/27 07:12:32;;;;;;;10.38;4.20;;;;;;;10.56;72.66;101102.38;5009826;28;20029;-84
2021/05/27 07:14:58;;;;;;;25.15;10.02;;;;;;;10.64;72.97;101125.75;5008277;28;20491;-85
2021/05/27 07:17:24;;;;;;;8.23;3.85;;;;;;;10.62;73.04;101117.00;5009763;28;20032;-84
2021/05/27 07:19:51;;;;;;;10.35;4.82;;;;;;;10.64;73.27;101119.50;5008683;28;20116;-84
2021/05/27 07:22:17;;;;;;;6.47;3.30;;;;;;;10.67;74.29;101119.19;5009593;28;20087;-85
2021/05/27 07:24:43;;;;;;;11.85;5.68;;;;;;;10.64;74.43;101103.34;5003646;28;20026;-85
2021/05/27 07:27:08;;;;;;;6.90;4.22;;;;;;;10.66;74.84;101122.88;5009923;28;20026;-84
2021/05/27 07:29:34;;;;;;;4.60;3.42;;;;;;;10.53;75.79;101104.53;5017268;28;20022;-85
2021/05/27 07:32:01;;;;;;;6.25;4.13;;;;;;;10.64;76.14;101124.88;5008055;28;20385;-85
2021/05/27 07:34:26;;;;;;;9.40;4.22;;;;;;;10.56;76.48;101115.81;5011115;28;20424;-84
2021/05/27 07:36:51;;;;;;;10.32;6.30;;;;;;;10.55;76.98;101114.09;5011065;28;20623;-84
2021/05/27 07:39:17;;;;;;;13.55;5.72;;;;;;;10.50;77.46;101119.16;5011359;28;20030;-85
2021/05/27 07:41:42;;;;;;;9.52;6.35;;;;;;;10.52;78.01;101127.91;5017359;28;20040;-85
2021/05/27 07:44:08;;;;;;;11.25;5.22;;;;;;;10.53;78.02;101128.72;5011389;28;20528;-84
2021/05/27 07:46:33;;;;;;;7.70;4.50;;;;;;;10.44;77.84;101124.38;5015972;28;20049;-84
2021/05/27 07:48:59;;;;;;;10.73;5.20;;;;;;;10.45;77.91;101134.09;5009886;28;20077;-84
2021/05/27 07:51:24;;;;;;;10.80;6.30;;;;;;;10.42;77.79;101124.50;5006269;28;20485;-84
2021/05/27 07:53:49;;;;;;;5.65;3.53;;;;;;;10.22;78.25;101089.03;5010420;28;20101;-84
2021/05/27 07:56:15;;;;;;;5.75;4.15;;;;;;;10.42;78.44;101116.44;5010291;28;20029;-84
2021/05/27 07:58:40;;;;;;;3.92;2.88;;;;;;;10.45;78.67;101113.47;5012310;28;20030;-84
2021/05/27 08:01:06;;;;;;;6.38;3.90;;;;;;;10.47;79.08;101115.97;5010042;28;20021;-84
2021/05/27 08:03:32;;;;;;;8.25;3.75;;;;;;;10.51;78.91;101115.47;5010188;28;20048;-84
2021/05/27 08:05:57;;;;;;;9.35;4.05;;;;;;;10.56;79.10;101115.81;5028585;28;20055;-84
2021/05/27 08:08:23;;;;;;;5.65;3.72;;;;;;;10.60;79.10;101131.59;5006050;28;20692;-84
2021/05/27 08:10:48;;;;;;;5.63;3.80;;;;;;;10.54;79.26;101114.28;5012197;28;20026;-84
2021/05/27 08:13:14;;;;;;;9.93;5.50;;;;;;;10.62;79.70;101127.75;5015030;28;20028;-84
2021/05/27 08:15:41;;;;;;;5.13;3.67;;;;;;;10.62;79.53;101126.91;5012357;28;20025;-84
2021/05/27 08:18:06;;;;;;;6.13;4.03;;;;;;;10.67;80.17;101124.56;4993018;28;20014;-84
2021/05/27 08:20:33;;;;;;;9.20;4.55;;;;;;;10.70;80.37;101116.16;5009308;28;20029;-84
2021/05/27 08:22:58;;;;;;;10.05;4.57;;;;;;;10.74;80.58;101121.03;5009554;28;20117;-85
2021/05/27 08:25:24;;;;;;;5.38;3.35;;;;;;;10.76;80.76;101116.31;5008116;28;20034;-84
2021/05/27 08:27:49;;;;;;;6.18;3.67;;;;;;;10.68;80.91;101104.72;5006409;28;20388;-85
2021/05/27 08:30:15;;;;;;;5.95;3.90;;;;;;;10.85;81.16;101127.06;5004117;28;20026;-84
2021/05/27 08:32:41;;;;;;;6.07;3.35;;;;;;;10.87;81.43;101125.06;5007403;28;20029;-84
2021/05/27 08:35:07;;;;;;;5.82;3.50;;;;;;;10.85;81.91;101127.94;5009844;28;20025;-83
2021/05/27 08:37:33;;;;;;;5.97;4.20;;;;;;;10.96;82.09;101132.97;5008893;28;20033;-84
2021/05/27 08:39:58;;;;;;;8.75;4.80;;;;;;;11.00;82.36;101142.34;5008801;28;20432;-84
2021/05/27 08:42:24;;;;;;;8.85;4.75;;;;;;;10.91;82.42;101132.63;5009338;28;20022;-84
2021/05/27 08:44:50;;;;;;;10.98;5.38;;;;;;;10.92;82.95;101120.84;5008946;28;20018;-84
2021/05/27 08:47:16;;;;;;;14.95;5.53;;;;;;;10.92;83.02;101134.28;5006534;28;20057;-83
2021/05/27 08:49:45;;;;;;;7.32;4.68;;;;;;;10.94;83.09;101132.28;5008820;28;20044;-84
2021/05/27 08:52:11;;;;;;;8.27;4.15;;;;;;;10.94;83.78;101137.66;5008805;28;20033;-84
2021/05/27 08:54:36;;;;;;;8.98;3.92;;;;;;;10.86;83.74;101132.28;5008919;28;20396;-83
2021/05/27 08:57:03;;;;;;;12.00;5.38;;;;;;;10.81;84.00;101126.56;5008873;28;20105;-85
2021/05/27 08:59:29;;;;;;;10.77;3.90;;;;;;;10.87;84.32;101127.75;5008026;28;20018;-84
2021/05/27 09:02:09;;;;;;;8.10;4.80;;;;;;;10.88;84.38;101132.13;5005781;28;20393;-83
2021/05/27 09:04:35;;;;;;;7.30;4.57;;;;;;;10.86;83.87;101134.97;5010777;28;20657;-84
2021/05/27 09:07:01;;;;;;;8.80;4.68;;;;;;;10.92;84.08;101136.97;5009877;28;20032;-84
2021/05/27 09:09:52;;;;;;;6.10;3.75;;;;;;;10.95;84.44;101135.81;5008629;28;20049;-84
2021/05/27 09:12:36;;;;;;;9.70;6.32;;;;;;;10.96;84.60;101124.88;5024471;28;20029;-84
2021/05/27 09:15:17;;;;;;;7.70;4.97;;;;;;;11.00;84.64;101131.59;5004901;28;20021;-84
2021/05/27 09:17:53;;;;;;;16.15;5.90;;;;;;;11.03;84.66;101121.50;5006765;28;20032;-84
2021/05/27 09:20:22;;;;;;;8.82;6.80;;;;;;;11.03;84.42;101134.97;5009045;28;20018;-84
2021/05/27 09:23:14;;;;;;;10.20;7.30;;;;;;;11.04;84.71;101131.28;5010334;28;20033;-84
2021/05/27 09:25:42;;;;;;;14.90;9.65;;;;;;;11.02;84.58;101127.91;5001937;28;20072;-84
2021/05/27 09:28:18;;;;;;;9.35;5.75;;;;;;;11.02;84.89;101117.97;5012483;28;20108;-84
2021/05/27 09:30:46;;;;;;;10.02;5.50;;;;;;;11.06;84.81;101118.47;5012190;28;20026;-84
2021/05/27 09:33:13;;;;;;;10.98;5.85;;;;;;;11.14;85.01;101127.41;5014291;28;20162;-84
2021/05/27 09:35:38;;;;;;;12.68;5.80;;;;;;;11.15;85.27;101130.91;4996362;28;20025;-84
2021/05/27 09:38:05;;;;;;;9.95;4.82;;;;;;;11.21;85.02;101124.84;5012112;28;20022;-84
2021/05/27 09:40:43;;;;;;;10.15;4.85;;;;;;;11.24;85.46;101121.81;5017772;28;20493;-84
2021/05/27 09:43:11;;;;;;;7.93;5.18;;;;;;;11.23;84.92;101120.97;5018843;28;20028;-84
2021/05/27 09:45:38;;;;;;;7.43;3.72;;;;;;;11.18;85.24;101109.88;5013515;28;20109;-84
2021/05/27 09:48:24;;;;;;;9.85;5.38;;;;;;;11.29;85.09;101114.06;5031290;28;20460;-84
2021/05/27 09:50:49;;;;;;;6.38;4.00;;;;;;;11.34;85.00;101114.38;5013420;28;20432;-84
2021/05/27 09:53:17;;;;;;;6.00;3.28;;;;;;;11.37;84.63;101116.72;5012929;28;20495;-84
2021/05/27 09:55:44;;;;;;;8.15;3.72;;;;;;;11.45;84.71;101122.09;5014449;28;20030;-84
2021/05/27 09:58:12;;;;;;;4.65;3.25;;;;;;;11.52;84.96;101129.50;5012283;28;20420;-84
2021/05/27 10:00:38;;;;;;;7.13;3.67;;;;;;;11.57;84.88;101129.81;4995297;28;20121;-84
2021/05/27 10:03:29;;;;;;;4.35;2.53;;;;;;;11.59;84.92;101131.31;4995399;28;20041;-84
2021/05/27 10:05:56;;;;;;;5.68;3.97;;;;;;;11.57;84.83;101125.28;5016148;28;20033;-84
2021/05/27 10:08:22;;;;;;;11.05;5.57;;;;;;;11.49;84.98;101113.69;5018301;28;20022;-84
2021/05/27 10:10:48;;;;;;;10.93;5.15;;;;;;;11.43;84.77;101110.69;5019851;28;20022;-84
2021/05/27 10:13:15;;;;;;;17.65;7.13;;;;;;;11.52;84.83;101124.94;5017638;28;20026;-84
2021/05/27 10:15:43;;;;;;;10.38;5.95;;;;;;;11.49;85.10;101122.59;5017969;28;20025;-84
2021/05/27 10:18:14;;;;;;;12.63;8.07;;;;;;;11.54;84.72;101125.63;5016189;28;20054;-84
2021/05/27 10:20:39;;;;;;;11.77;6.85;;;;;;;11.42;84.75;101100.06;5020485;28;20026;-84
2021/05/27 10:23:06;;;;;;;8.57;5.45;;;;;;;11.65;84.58;101125.25;5017660;28;20030;-85
2021/05/27 10:25:31;;;;;;;8.77;5.95;;;;;;;11.73;84.20;101137.00;5017280;28;20018;-84
2021/05/27 10:27:58;;;;;;;9.23;5.13;;;;;;;11.65;84.48;101124.41;5016230;28;20268;-85
2021/05/27 10:30:25;;;;;;;10.30;6.32;;;;;;;11.65;84.80;101121.72;5028923;28;20029;-84
2021/05/27 10:33:02;;;;;;;8.65;4.57;;;;;;;11.65;84.78;101125.25;5015697;28;20370;-84
2021/05/27 10:35:52;;;;;;;14.70;7.10;;;;;;;11.77;84.74;101141.00;5017604;28;20030;-84
2021/05/27 10:38:38;;;;;;;13.45;8.50;;;;;;;11.75;84.65;101133.13;5018693;28;20026;-84
2021/05/27 10:41:05;;;;;;;11.55;6.90;;;;;;;11.66;84.87;101121.53;5013598;28;20025;-85
2021/05/27 10:43:30;;;;;;;8.27;5.68;;;;;;;11.67;84.99;101114.31;5017167;28;20026;-84
2021/05/27 10:45:59;;;;;;;8.05;4.57;;;;;;;11.74;85.07;101127.91;5011893;28;20028;-84
2021/05/27 10:48:26;;;;;;;6.40;4.97;;;;;;;11.70;85.04;101121.19;5022434;28;20053;-84
2021/05/27 10:50:55;;;;;;;11.18;7.22;;;;;;;11.77;84.94;101120.28;5015408;28;20026;-83
2021/05/27 10:53:32;;;;;;;10.13;7.00;;;;;;;11.80;85.16;101124.50;5015992;28;20504;-84
2021/05/27 10:55:58;;;;;;;9.07;4.47;;;;;;;11.79;85.28;101120.13;5015931;28;20030;-83
2021/05/27 10:58:49;;;;;;;10.90;5.95;;;;;;;11.77;85.56;101109.53;5005419;28;20386;-84
2021/05/27 11:01:30;;;;;;;7.55;5.18;;;;;;;11.76;85.31;101113.25;5022154;28;20373;-83
2021/05/27 11:03:57;;;;;;;10.70;5.70;;;;;;;11.78;85.31;101118.47;5016922;28;20026;-84
2021/05/27 11:06:32;;;;;;;13.25;7.50;;;;;;;11.82;85.61;101122.47;5020116;28;20049;-84
2021/05/27 11:09:07;;;;;;;6.80;4.05;;;;;;;11.79;85.45;101123.66;5015894;28;20114;-84
2021/05/27 11:11:46;;;;;;;16.08;6.65;;;;;;;11.81;85.51;101118.94;5009401;28;20122;-84
2021/05/27 11:14:20;;;;;;;10.55;6.13;;;;;;;11.78;85.46;101118.47;5014853;28;20076;-84
2021/05/27 11:22:27;;;;;;;13.13;6.50;;;;;;;11.96;85.29;101129.00;5011851;28;20030;-84
2021/05/27 11:27:52;;;;;;;18.88;10.73;;;;;;;12.04;85.27;101127.13;5011561;28;20436;-83
2021/05/27 11:30:30;;;;;;;18.52;9.50;;;;;;;12.06;85.27;101143.09;5012160;28;20022;-84
2021/05/27 11:33:02;;;;;;;7.43;4.40;;;;;;;12.06;85.12;101135.03;5006958;28;20377;-84
2021/05/27 11:35:37;;;;;;;8.20;5.28;;;;;;;11.96;85.59;101115.53;5013008;28;20862;-84
2021/05/27 11:38:06;;;;;;;9.35;4.82;;;;;;;12.02;85.78;101131.03;5009382;28;20029;-84
2021/05/27 11:40:34;;;;;;;6.00;4.05;;;;;;;12.09;85.63;101140.06;5010034;28;20018;-84
2021/05/27 11:43:00;;;;;;;13.40;5.97;;;;;;;12.03;85.95;101121.91;5012806;28;20075;-85
2021/05/27 11:45:27;;;;;;;10.70;4.95;;;;;;;12.17;85.82;101136.47;5009852;28;20037;-84
2021/05/27 11:48:22;;;;;;;8.15;5.30;;;;;;;12.19;86.01;101121.81;4993073;28;20018;-85
2021/05/27 11:50:49;;;;;;;9.15;5.03;;;;;;;12.28;85.90;101120.75;4989195;28;20771;-83
2021/05/27 11:53:17;;;;;;;6.38;3.30;;;;;;;12.36;85.52;101140.56;5009980;28;20076;-84